Time;durP1;ratioP1;P1;durP2;ratioP2;P2;SDS_P1;SDS_P2;PMS_P1;PMS_P2;Temp;Humidity;BMP_temperature;BMP_pressure;BME280_temperature;BME280_humidity;BME280_pressure;Samples;Min_cycle;Max_cycle;Signal;HPM_P1;HPM_P2
2020/12/03 00:01:05;;;;;;;11.50;5.80;;;5.80;99.90;;;;;;4983278;28;20319;-96
2020/12/03 00:03:54;;;;;;;11.33;5.57;;;5.80;99.90;;;;;;4984564;28;20800;-96
2020/12/03 00:06:30;;;;;;;10.27;5.43;;;5.90;99.90;;;;;;4981851;28;20339;-96
2020/12/03 00:08:59;;;;;;;11.67;5.40;;;5.90;99.90;;;;;;4984425;28;20227;-95
2020/12/03 00:11:30;;;;;;;8.40;4.43;;;5.90;99.90;;;;;;4973268;28;20215;-95
2020/12/03 00:13:56;;;;;;;7.63;6.83;;;5.90;99.90;;;;;;4984558;28;21114;-96
2020/12/03 00:16:32;;;;;;;11.17;5.73;;;5.90;99.90;;;;;;4976643;28;20222;-96
2020/12/03 00:19:00;;;;;;;8.03;4.97;;;5.90;99.90;;;;;;4995645;28;20314;-96
2020/12/03 00:21:32;;;;;;;4.03;3.73;;;5.90;99.90;;;;;;4993259;28;20685;-96
2020/12/03 00:23:58;;;;;;;7.07;4.57;;;6.00;99.90;;;;;;4980970;28;20775;-96
2020/12/03 00:26:26;;;;;;;7.77;4.70;;;6.00;99.90;;;;;;4984068;28;20190;-95
2020/12/03 00:28:52;;;;;;;9.07;6.50;;;6.00;99.90;;;;;;4984802;28;20188;-94
2020/12/03 00:31:18;;;;;;;14.87;6.63;;;6.00;99.90;;;;;;4983880;28;20219;-95
2020/12/03 00:33:44;;;;;;;16.03;6.87;;;6.00;99.90;;;;;;4965541;28;20224;-96
2020/12/03 00:36:10;;;;;;;7.20;5.63;;;6.10;99.90;;;;;;4983555;28;20291;-96
2020/12/03 00:38:36;;;;;;;13.27;5.53;;;6.10;99.90;;;;;;4966586;28;20589;-95
2020/12/03 00:41:02;;;;;;;20.10;8.73;;;6.10;99.90;;;;;;4972575;28;20184;-95
2020/12/03 00:43:28;;;;;;;10.10;7.07;;;6.10;99.90;;;;;;4983506;28;20223;-96
2020/12/03 00:45:56;;;;;;;13.33;6.47;;;6.10;99.90;;;;;;4983704;28;20219;-96
2020/12/03 00:48:27;;;;;;;11.40;5.33;;;6.10;99.90;;;;;;4980351;28;20622;-96
2020/12/03 00:50:53;;;;;;;6.50;4.20;;;6.00;99.90;;;;;;4969713;28;20278;-96
2020/12/03 00:53:22;;;;;;;7.40;6.30;;;6.00;99.90;;;;;;4986011;28;20184;-96
2020/12/03 00:55:51;;;;;;;16.13;7.07;;;6.10;99.90;;;;;;4989295;28;20209;-96
2020/12/03 00:58:17;;;;;;;12.17;5.27;;;6.10;99.90;;;;;;4974876;28;20338;-96
2020/12/03 01:00:43;;;;;;;7.87;5.63;;;6.10;99.90;;;;;;4985022;28;20236;-96
2020/12/03 01:03:14;;;;;;;14.37;5.43;;;6.10;99.90;;;;;;4984675;28;20239;-96
2020/12/03 01:05:40;;;;;;;10.77;7.30;;;6.10;99.90;;;;;;4989519;28;20270;-96
2020/12/03 01:08:06;;;;;;;14.77;6.33;;;6.10;99.90;;;;;;4987875;28;20282;-96
2020/12/03 01:10:41;;;;;;;12.13;6.80;;;6.10;99.90;;;;;;4987468;28;20290;-96
2020/12/03 01:13:07;;;;;;;9.70;6.17;;;6.10;99.90;;;;;;4985209;28;20221;-95
2020/12/03 01:15:33;;;;;;;9.37;5.10;;;6.10;99.90;;;;;;5002586;28;20677;-95
2020/12/03 01:17:59;;;;;;;10.13;6.37;;;6.10;99.90;;;;;;4992202;28;20616;-96
2020/12/03 01:20:28;;;;;;;9.47;7.00;;;6.20;99.90;;;;;;4983673;28;20192;-95
2020/12/03 01:22:56;;;;;;;10.80;7.43;;;6.10;99.90;;;;;;4986344;28;20699;-96
2020/12/03 01:25:25;;;;;;;9.47;6.47;;;6.20;99.90;;;;;;4959272;28;20243;-96
2020/12/03 01:27:54;;;;;;;10.40;6.90;;;6.10;99.90;;;;;;4965350;28;20254;-96
2020/12/03 01:30:23;;;;;;;8.63;7.07;;;6.20;99.90;;;;;;4972703;28;20262;-96
2020/12/03 01:32:50;;;;;;;12.63;7.13;;;6.20;99.90;;;;;;4995252;28;20235;-96
2020/12/03 01:35:18;;;;;;;12.53;7.40;;;6.20;99.90;;;;;;4988398;28;20241;-96
2020/12/03 01:37:47;;;;;;;11.43;7.13;;;6.20;99.90;;;;;;5004107;28;20219;-96
2020/12/03 01:40:17;;;;;;;11.50;6.50;;;6.30;99.90;;;;;;4988086;28;20219;-96
2020/12/03 01:42:45;;;;;;;12.30;8.33;;;6.20;99.90;;;;;;4992652;28;20231;-96
2020/12/03 01:45:46;;;;;;;14.83;7.20;;;6.30;99.90;;;;;;4966982;28;20857;-96
2020/12/03 01:48:24;;;;;;;13.27;9.10;;;6.30;99.90;;;;;;4959368;28;20231;-96
2020/12/03 01:50:50;;;;;;;12.83;8.40;;;6.30;99.90;;;;;;4996754;28;20222;-96
2020/12/03 01:53:19;;;;;;;14.60;9.17;;;6.30;99.90;;;;;;4992329;28;20245;-96
2020/12/03 01:55:50;;;;;;;11.17;7.57;;;6.30;99.90;;;;;;4988514;28;20227;-95
2020/12/03 01:58:34;;;;;;;20.93;9.47;;;6.30;99.90;;;;;;4988211;28;20762;-96
2020/12/03 02:01:04;;;;;;;15.97;7.30;;;6.30;99.90;;;;;;4988706;28;20223;-95
2020/12/03 02:03:30;;;;;;;9.87;6.17;;;6.30;99.90;;;;;;4979292;28;20262;-96
2020/12/03 02:05:56;;;;;;;10.60;7.17;;;6.30;99.90;;;;;;4982141;28;20271;-95
2020/12/03 02:08:22;;;;;;;21.30;8.77;;;6.30;99.90;;;;;;4967041;28;20778;-95
2020/12/03 02:10:49;;;;;;;12.30;6.10;;;6.30;99.90;;;;;;4984030;28;20193;-96
2020/12/03 02:13:15;;;;;;;19.80;9.23;;;6.30;99.90;;;;;;4982092;28;20306;-96
2020/12/03 02:15:43;;;;;;;14.67;8.57;;;6.30;99.90;;;;;;4986573;28;20218;-96
2020/12/03 02:18:10;;;;;;;12.57;6.80;;;6.30;99.90;;;;;;4983640;28;20222;-96
2020/12/03 02:20:36;;;;;;;13.40;8.07;;;6.30;99.90;;;;;;4984908;28;20196;-96
2020/12/03 02:23:11;;;;;;;17.13;8.43;;;6.30;99.90;;;;;;4987914;28;20212;-96
2020/12/03 02:25:37;;;;;;;15.83;8.40;;;6.30;99.90;;;;;;4986899;28;20227;-96
2020/12/03 02:28:06;;;;;;;16.63;8.80;;;6.40;99.90;;;;;;4984091;28;20224;-96
2020/12/03 02:30:32;;;;;;;18.07;8.37;;;6.30;99.90;;;;;;4984260;28;20231;-96
2020/12/03 02:33:02;;;;;;;7.47;5.77;;;6.30;99.90;;;;;;4984868;28;20220;-95
2020/12/03 02:35:28;;;;;;;12.43;8.13;;;6.30;99.90;;;;;;4976342;28;20969;-96
2020/12/03 02:37:55;;;;;;;18.43;7.03;;;6.30;99.90;;;;;;5004097;28;20188;-96
2020/12/03 02:40:20;;;;;;;13.57;7.77;;;6.30;99.90;;;;;;5000957;28;20307;-96
2020/12/03 02:42:46;;;;;;;17.57;10.10;;;6.30;99.90;;;;;;4985861;28;20293;-95
2020/12/03 02:45:12;;;;;;;10.87;7.07;;;6.30;99.90;;;;;;4984978;28;20223;-95
2020/12/03 02:47:38;;;;;;;11.00;8.37;;;6.30;99.90;;;;;;4985068;28;20188;-96
2020/12/03 02:50:08;;;;;;;12.73;8.00;;;6.30;99.90;;;;;;4989730;28;20266;-96
2020/12/03 02:52:37;;;;;;;17.50;7.60;;;6.30;99.90;;;;;;4987750;28;20255;-96
2020/12/03 02:55:06;;;;;;;11.13;6.70;;;6.30;99.90;;;;;;4990706;28;20215;-96
2020/12/03 02:57:32;;;;;;;9.40;6.87;;;6.30;99.90;;;;;;4991429;28;20212;-96
2020/12/03 02:59:58;;;;;;;10.47;6.83;;;6.30;99.90;;;;;;4990093;28;20208;-96
2020/12/03 03:02:24;;;;;;;15.10;9.83;;;6.30;99.90;;;;;;4981123;28;20186;-96
2020/12/03 03:04:54;;;;;;;12.77;8.13;;;6.30;99.90;;;;;;4992552;28;20187;-96
2020/12/03 03:07:20;;;;;;;10.50;5.83;;;6.30;99.90;;;;;;4975235;28;20653;-96
2020/12/03 03:09:48;;;;;;;12.33;7.93;;;6.30;99.90;;;;;;4991429;28;20226;-96
2020/12/03 03:12:14;;;;;;;12.57;6.20;;;6.30;99.90;;;;;;4984378;28;20224;-96
2020/12/03 03:14:40;;;;;;;13.43;8.60;;;6.30;99.90;;;;;;4991018;28;20734;-96
2020/12/03 03:17:06;;;;;;;14.40;8.33;;;6.30;99.90;;;;;;4992995;28;20176;-96
2020/12/03 03:19:38;;;;;;;12.23;8.17;;;6.30;99.90;;;;;;4989747;28;20224;-96
2020/12/03 03:22:04;;;;;;;11.83;6.37;;;6.30;99.90;;;;;;4987186;28;20786;-96
2020/12/03 03:24:32;;;;;;;15.13;7.17;;;6.30;99.90;;;;;;4986630;28;20251;-96
2020/12/03 03:26:58;;;;;;;11.63;8.53;;;6.30;99.90;;;;;;4988369;28;20220;-96
2020/12/03 03:29:24;;;;;;;8.57;6.53;;;6.30;99.90;;;;;;4984515;28;21029;-96
2020/12/03 03:31:50;;;;;;;12.23;8.03;;;6.30;99.90;;;;;;4991320;28;20184;-96
2020/12/03 03:34:16;;;;;;;14.03;7.30;;;6.30;99.90;;;;;;4979572;28;20224;-96
2020/12/03 03:36:45;;;;;;;11.03;7.93;;;6.30;99.90;;;;;;4987238;28;20216;-96
2020/12/03 03:39:18;;;;;;;12.87;8.97;;;6.30;99.90;;;;;;4985982;28;20220;-96
2020/12/03 03:41:44;;;;;;;17.53;8.83;;;6.30;99.90;;;;;;4988987;28;20234;-96
2020/12/03 03:44:12;;;;;;;14.30;7.93;;;6.30;99.90;;;;;;4991221;28;20218;-96
2020/12/03 03:46:38;;;;;;;11.70;8.03;;;6.40;99.90;;;;;;4991236;28;20603;-96
2020/12/03 03:49:07;;;;;;;10.80;7.50;;;6.40;99.90;;;;;;4990016;28;20220;-96
2020/12/03 03:51:35;;;;;;;16.03;8.07;;;6.40;99.90;;;;;;4988774;28;20227;-96
2020/12/03 03:54:04;;;;;;;9.37;6.27;;;6.40;99.90;;;;;;4990103;28;20223;-96
2020/12/03 03:56:31;;;;;;;37.57;9.27;;;6.40;99.90;;;;;;4986917;28;20581;-96
2020/12/03 03:58:59;;;;;;;13.93;8.33;;;6.40;99.90;;;;;;4990138;28;20183;-96
2020/12/03 04:01:28;;;;;;;16.37;7.93;;;6.40;99.90;;;;;;4987981;28;20278;-96
2020/12/03 04:04:01;;;;;;;12.97;7.20;;;6.50;99.90;;;;;;4986874;28;20290;-96
2020/12/03 04:06:29;;;;;;;12.70;8.17;;;6.40;99.90;;;;;;4988149;28;20230;-96
2020/12/03 04:08:57;;;;;;;17.63;6.43;;;6.40;99.90;;;;;;5007829;28;20223;-96
2020/12/03 04:11:25;;;;;;;13.77;9.07;;;6.40;99.90;;;;;;5008194;28;20191;-96
2020/12/03 04:13:52;;;;;;;13.50;8.00;;;6.40;99.90;;;;;;5009134;28;20183;-96
2020/12/03 04:16:18;;;;;;;15.07;9.57;;;6.50;99.90;;;;;;5007014;28;20310;-96
2020/12/03 04:18:46;;;;;;;11.57;7.30;;;6.40;99.90;;;;;;4995239;28;20250;-96
2020/12/03 04:21:16;;;;;;;9.50;6.93;;;6.40;99.90;;;;;;4990346;28;20297;-96
2020/12/03 04:23:44;;;;;;;9.47;6.13;;;6.40;99.90;;;;;;4994922;28;20358;-96
2020/12/03 04:26:13;;;;;;;9.73;7.33;;;6.40;99.90;;;;;;5005731;28;20226;-96
2020/12/03 04:28:40;;;;;;;12.37;6.23;;;6.40;99.90;;;;;;4986875;28;20215;-96
2020/12/03 04:31:10;;;;;;;10.43;7.63;;;6.50;99.90;;;;;;4983992;28;20234;-96
2020/12/03 04:33:36;;;;;;;12.33;6.67;;;6.40;99.90;;;;;;4980887;28;20230;-96
2020/12/03 04:36:03;;;;;;;11.00;6.57;;;6.40;99.90;;;;;;4999133;28;20227;-96
2020/12/03 04:38:28;;;;;;;9.77;7.23;;;6.40;99.90;;;;;;4998092;28;21130;-96
2020/12/03 04:40:55;;;;;;;11.67;5.70;;;6.40;99.90;;;;;;4997898;28;20218;-96
2020/12/03 04:43:45;;;;;;;17.20;8.47;;;6.40;99.90;;;;;;5006572;28;20314;-96
2020/12/03 04:46:23;;;;;;;9.13;6.17;;;6.40;99.90;;;;;;4990364;28;20572;-96
2020/12/03 04:49:23;;;;;;;14.27;7.03;;;6.40;99.90;;;;;;5009120;28;20714;-96
2020/12/03 04:52:17;;;;;;;9.13;6.77;;;6.40;99.90;;;;;;4996303;28;20784;-96
2020/12/03 04:55:20;;;;;;;8.27;6.43;;;6.40;99.90;;;;;;4988667;28;20254;-96
2020/12/03 04:58:08;;;;;;;9.50;6.10;;;6.40;99.90;;;;;;4994285;28;20227;-96
2020/12/03 05:00:37;;;;;;;6.43;5.70;;;6.40;99.90;;;;;;5020540;28;20218;-96
2020/12/03 05:03:08;;;;;;;10.70;6.80;;;6.40;99.90;;;;;;5005515;28;20230;-96
2020/12/03 05:05:57;;;;;;;7.50;6.80;;;6.40;99.90;;;;;;5005095;28;20195;-96
2020/12/03 05:08:33;;;;;;;11.47;7.47;;;6.40;99.90;;;;;;4995900;28;20653;-96
2020/12/03 05:11:00;;;;;;;8.40;7.10;;;6.40;99.90;;;;;;5007304;28;21098;-96
2020/12/03 05:13:34;;;;;;;10.43;7.47;;;6.40;99.90;;;;;;4994006;28;20242;-96
2020/12/03 05:16:45;;;;;;;11.93;7.90;;;6.40;99.90;;;;;;4994780;28;20367;-96
2020/12/03 05:19:37;;;;;;;9.53;6.57;;;6.40;99.90;;;;;;4962060;28;20363;-96
2020/12/03 05:22:20;;;;;;;8.13;6.80;;;6.40;99.90;;;;;;4982047;28;20315;-96
2020/12/03 05:24:46;;;;;;;13.23;7.00;;;6.40;99.90;;;;;;4988161;28;20306;-96
2020/12/03 05:27:23;;;;;;;9.37;7.93;;;6.40;99.90;;;;;;4987469;28;20596;-96
2020/12/03 05:29:50;;;;;;;12.80;8.87;;;6.40;99.90;;;;;;4978704;28;20238;-96
2020/12/03 05:32:23;;;;;;;13.90;7.07;;;6.40;99.90;;;;;;4991255;28;20176;-96
2020/12/03 05:34:54;;;;;;;14.20;8.90;;;6.40;99.90;;;;;;4974400;28;20357;-96
2020/12/03 05:37:22;;;;;;;11.67;8.10;;;6.50;99.90;;;;;;5004505;28;20496;-96
2020/12/03 05:39:57;;;;;;;12.60;9.20;;;6.50;99.90;;;;;;5004883;28;20220;-96
2020/12/03 05:42:28;;;;;;;10.67;6.97;;;6.50;99.90;;;;;;4987344;28;20301;-96
2020/12/03 05:45:04;;;;;;;10.17;8.47;;;6.50;99.90;;;;;;5003826;28;20246;-96
2020/12/03 05:47:35;;;;;;;13.43;8.83;;;6.50;99.90;;;;;;5000720;28;20183;-96
2020/12/03 05:50:15;;;;;;;11.70;8.63;;;6.50;99.90;;;;;;5011815;28;20582;-94
2020/12/03 05:53:01;;;;;;;10.80;6.90;;;6.40;99.90;;;;;;5011496;28;20277;-95
2020/12/03 05:55:34;;;;;;;8.57;7.27;;;6.40;99.90;;;;;;4976202;28;20207;-96
2020/12/03 05:58:32;;;;;;;11.70;8.47;;;6.40;99.90;;;;;;4969661;28;20249;-96
2020/12/03 06:08:28;;;;;;;11.43;10.23;;;6.40;99.90;;;;;;4994448;28;20235;-96
2020/12/03 06:11:25;;;;;;;9.60;7.63;;;6.40;99.90;;;;;;4973892;28;20225;-96
2020/12/03 06:14:33;;;;;;;11.80;9.10;;;6.40;99.90;;;;;;4990045;28;20219;-96
2020/12/03 06:17:20;;;;;;;20.50;9.90;;;6.30;99.90;;;;;;4991263;28;20230;-96
2020/12/03 06:20:03;;;;;;;10.93;7.23;;;6.30;99.90;;;;;;4970870;28;20224;-96
2020/12/03 06:22:49;;;;;;;18.20;10.70;;;6.30;99.90;;;;;;4987025;28;20227;-96
2020/12/03 06:25:15;;;;;;;13.73;9.60;;;6.30;99.90;;;;;;4989334;28;20318;-96
2020/12/03 06:27:54;;;;;;;15.37;10.47;;;6.30;99.90;;;;;;4972383;28;20224;-96
2020/12/03 06:30:43;;;;;;;8.07;7.30;;;6.30;99.90;;;;;;4976580;28;20214;-96
2020/12/03 06:33:41;;;;;;;12.90;9.27;;;6.20;99.90;;;;;;4963491;28;20224;-95
2020/12/03 06:36:53;;;;;;;16.67;8.57;;;6.30;99.90;;;;;;4971752;28;20254;-95
2020/12/03 06:39:40;;;;;;;18.10;11.40;;;6.30;99.90;;;;;;4955808;28;20308;-95
2020/12/03 06:46:12;;;;;;;12.67;10.03;;;6.20;99.90;;;;;;4998115;28;20223;-96
2020/12/03 06:49:32;;;;;;;9.60;8.00;;;6.20;99.90;;;;;;4973697;28;20250;-94
2020/12/03 06:52:23;;;;;;;9.27;6.17;;;6.30;99.90;;;;;;4956700;28;20232;-96
2020/12/03 06:55:01;;;;;;;12.13;8.47;;;6.20;99.90;;;;;;5005504;28;20226;-96
2020/12/03 06:57:26;;;;;;;8.63;7.70;;;6.20;99.90;;;;;;5014252;28;20217;-96
2020/12/03 07:00:22;;;;;;;14.73;9.80;;;6.20;99.90;;;;;;5005154;28;20329;-96
2020/12/03 07:03:56;;;;;;;;;;;;;;;;;;;;;
2020/12/03 07:07:07;;;;;;;10.43;6.63;;;6.20;99.90;;;;;;4973212;28;20239;-96
2020/12/03 07:09:59;;;;;;;19.13;10.63;;;6.20;99.90;;;;;;4986508;28;20254;-96
2020/12/03 07:12:46;;;;;;;20.67;10.87;;;6.20;99.90;;;;;;4992696;28;20671;-96
2020/12/03 07:15:36;;;;;;;15.53;9.03;;;6.20;99.90;;;;;;4967068;28;20219;-96
2020/12/03 07:18:26;;;;;;;18.63;12.30;;;6.20;99.90;;;;;;4997527;28;20218;-96
2020/12/03 07:21:07;;;;;;;17.60;9.67;;;6.20;99.90;;;;;;4980235;28;20701;-96
2020/12/03 07:23:59;;;;;;;20.97;12.33;;;6.20;99.90;;;;;;4985342;28;20200;-96
2020/12/03 07:29:58;;;;;;;16.50;11.47;;;6.20;99.90;;;;;;5019495;28;20309;-96
2020/12/03 07:32:33;;;;;;;17.10;12.03;;;6.20;99.90;;;;;;5012816;28;20183;-96
2020/12/03 07:45:43;;;;;;;12.20;9.03;;;6.20;99.90;;;;;;5005134;28;20367;-95
2020/12/03 07:48:16;;;;;;;16.33;9.67;;;6.20;99.90;;;;;;4993352;28;20231;-94
2020/12/03 07:54:18;;;;;;;10.67;7.27;;;6.20;99.90;;;;;;4992496;28;20230;-95
2020/12/03 07:56:47;;;;;;;17.70;9.90;;;6.20;99.90;;;;;;4992856;28;20744;-95
2020/12/03 07:59:22;;;;;;;15.50;9.83;;;6.20;99.90;;;;;;4961722;28;20180;-96
2020/12/03 08:02:11;;;;;;;17.50;9.87;;;6.20;99.90;;;;;;5009362;28;20219;-95
2020/12/03 08:11:59;;;;;;;18.63;8.60;;;6.20;99.90;;;;;;4990890;28;20226;-96
2020/12/03 08:18:02;;;;;;;16.27;8.97;;;6.20;99.90;;;;;;4975999;28;20282;-96
2020/12/03 08:20:42;;;;;;;19.90;10.77;;;6.30;99.90;;;;;;4955362;28;20203;-96
2020/12/03 08:23:11;;;;;;;12.17;7.80;;;6.30;99.90;;;;;;4988622;28;20351;-96
2020/12/03 08:25:42;;;;;;;16.57;9.03;;;6.30;99.90;;;;;;4988807;28;20208;-95
2020/12/03 08:28:19;;;;;;;10.03;8.80;;;6.30;99.90;;;;;;4973724;28;20275;-96
2020/12/03 08:30:51;;;;;;;29.87;11.17;;;6.30;99.90;;;;;;4973742;28;20222;-96
2020/12/03 08:33:24;;;;;;;13.93;10.53;;;6.30;99.90;;;;;;4989168;28;20193;-95
2020/12/03 08:36:12;;;;;;;23.07;12.37;;;6.30;99.90;;;;;;4970575;28;20203;-96
2020/12/03 08:38:41;;;;;;;18.80;9.47;;;6.30;99.90;;;;;;4955966;28;20271;-95
2020/12/03 08:41:14;;;;;;;12.77;9.40;;;6.30;99.90;;;;;;4956186;28;20196;-95
2020/12/03 08:43:58;;;;;;;14.23;10.33;;;6.30;99.90;;;;;;4960881;28;20368;-96
2020/12/03 08:46:26;;;;;;;11.73;8.63;;;6.30;99.90;;;;;;4969103;28;20224;-96
2020/12/03 08:48:54;;;;;;;29.77;13.90;;;6.30;99.90;;;;;;4941536;28;20686;-95
2020/12/03 08:51:20;;;;;;;18.70;10.03;;;6.30;99.90;;;;;;4941772;28;20228;-95
2020/12/03 08:53:51;;;;;;;14.53;9.80;;;6.30;99.90;;;;;;4962881;28;20228;-95
2020/12/03 08:56:19;;;;;;;17.47;11.63;;;6.20;99.90;;;;;;4956507;28;20239;-96
2020/12/03 08:58:57;;;;;;;15.00;8.07;;;6.20;99.90;;;;;;4963657;28;20242;-95
2020/12/03 09:01:31;;;;;;;11.97;8.83;;;6.20;99.90;;;;;;4950491;28;20212;-95
2020/12/03 09:04:49;;;;;;;16.57;10.40;;;6.20;99.90;;;;;;4943284;28;20252;-96
2020/12/03 09:07:18;;;;;;;15.07;10.30;;;6.10;99.90;;;;;;4958750;28;20240;-95
2020/12/03 09:09:47;;;;;;;22.90;13.90;;;6.20;99.90;;;;;;5019151;28;20287;-96
2020/12/03 09:12:26;;;;;;;12.87;9.53;;;6.20;99.90;;;;;;4986355;28;20224;-96
2020/12/03 09:15:30;;;;;;;12.97;9.63;;;6.20;99.90;;;;;;4989345;28;20388;-96
2020/12/03 09:18:00;;;;;;;14.20;9.00;;;6.20;99.90;;;;;;4996662;28;20828;-95
2020/12/03 09:20:32;;;;;;;17.70;9.53;;;6.30;99.90;;;;;;4977258;28;20172;-92
2020/12/03 09:23:03;;;;;;;12.93;9.70;;;6.20;99.90;;;;;;5000178;28;20735;-94
2020/12/03 09:25:53;;;;;;;14.23;10.53;;;6.20;99.90;;;;;;4955513;28;20220;-91
2020/12/03 09:28:19;;;;;;;11.13;9.33;;;6.30;99.90;;;;;;4984417;28;20223;-91
2020/12/03 09:30:54;;;;;;;14.63;9.87;;;6.30;99.90;;;;;;4996249;28;20223;-92
2020/12/03 09:33:22;;;;;;;18.10;11.40;;;6.30;99.90;;;;;;4994114;28;20224;-93
2020/12/03 09:35:53;;;;;;;19.57;10.73;;;6.30;99.90;;;;;;4977667;28;20228;-93
2020/12/03 09:38:22;;;;;;;8.73;6.83;;;6.30;99.90;;;;;;5001723;28;20184;-93
2020/12/03 09:40:49;;;;;;;14.27;8.37;;;6.30;99.90;;;;;;4969787;28;20227;-92
2020/12/03 09:43:21;;;;;;;18.50;11.87;;;6.30;99.90;;;;;;4973105;28;20262;-93
2020/12/03 09:45:54;;;;;;;15.70;8.03;;;6.40;99.90;;;;;;4997965;28;21037;-89
2020/12/03 09:48:23;;;;;;;18.00;9.67;;;6.40;99.90;;;;;;4989113;28;20230;-90
2020/12/03 09:50:49;;;;;;;16.03;9.37;;;6.40;99.90;;;;;;5000636;28;20254;-91
2020/12/03 09:53:21;;;;;;;20.40;8.87;;;6.40;99.90;;;;;;5003977;28;20335;-93
2020/12/03 09:55:48;;;;;;;16.13;8.23;;;6.40;99.90;;;;;;5019730;28;20215;-90
2020/12/03 09:58:19;;;;;;;18.10;10.50;;;6.40;99.90;;;;;;4970615;28;20317;-89
2020/12/03 10:00:47;;;;;;;15.63;9.07;;;6.40;99.90;;;;;;4977687;28;20305;-89
2020/12/03 10:03:16;;;;;;;12.23;7.90;;;6.50;99.90;;;;;;5002030;28;20235;-90
2020/12/03 10:05:59;;;;;;;20.10;11.33;;;6.50;99.90;;;;;;5000335;28;20810;-92
2020/12/03 10:08:52;;;;;;;11.10;7.97;;;6.50;99.90;;;;;;4984348;28;20235;-90
2020/12/03 10:11:56;;;;;;;18.43;8.60;;;6.50;99.90;;;;;;4983494;28;20199;-90
2020/12/03 10:14:35;;;;;;;13.30;7.40;;;6.50;99.90;;;;;;5001525;28;20222;-92
2020/12/03 10:17:06;;;;;;;15.03;8.97;;;6.50;99.90;;;;;;4984922;28;20245;-90
2020/12/03 10:19:41;;;;;;;16.17;7.67;;;6.50;99.90;;;;;;4982368;28;20215;-89
2020/12/03 10:22:23;;;;;;;10.87;7.20;;;6.50;99.90;;;;;;4981190;28;20223;-91
2020/12/03 10:24:55;;;;;;;12.80;8.53;;;6.50;99.90;;;;;;4995570;28;20725;-91
2020/12/03 10:27:30;;;;;;;18.30;9.87;;;6.60;99.90;;;;;;4989047;28;20232;-89
2020/12/03 10:30:04;;;;;;;14.23;9.07;;;6.50;99.90;;;;;;4994502;28;20748;-90
2020/12/03 10:32:33;;;;;;;11.13;8.07;;;6.60;99.90;;;;;;4974067;28;20384;-90
2020/12/03 10:35:02;;;;;;;16.43;9.57;;;6.60;99.90;;;;;;4984672;28;21275;-91
2020/12/03 10:37:33;;;;;;;7.90;7.10;;;6.50;99.90;;;;;;4994574;28;20215;-90
2020/12/03 10:40:14;;;;;;;12.43;8.80;;;6.50;99.90;;;;;;4995615;28;20603;-90
2020/12/03 10:42:47;;;;;;;21.23;11.47;;;6.50;99.90;;;;;;4996158;28;20230;-90
2020/12/03 10:45:20;;;;;;;17.40;9.70;;;6.50;99.90;;;;;;4988912;28;20281;-93
2020/12/03 10:47:53;;;;;;;15.97;9.17;;;6.50;99.90;;;;;;4992053;28;20223;-89
2020/12/03 10:50:20;;;;;;;23.70;10.10;;;6.50;99.90;;;;;;4977557;28;20196;-91
2020/12/03 10:52:46;;;;;;;19.47;9.90;;;6.50;99.90;;;;;;4959517;28;20228;-90
2020/12/03 10:55:19;;;;;;;19.50;10.23;;;6.60;99.90;;;;;;4971067;28;20610;-89
2020/12/03 10:58:01;;;;;;;21.53;12.47;;;6.60;99.90;;;;;;4976303;28;20252;-91
2020/12/03 11:00:28;;;;;;;16.67;8.77;;;6.60;99.90;;;;;;4980137;28;20211;-90
2020/12/03 11:03:00;;;;;;;16.27;9.83;;;6.50;99.90;;;;;;4980211;28;20303;-91
2020/12/03 11:05:32;;;;;;;15.50;8.17;;;6.60;99.90;;;;;;4982332;28;21439;-90
2020/12/03 11:07:58;;;;;;;18.50;8.87;;;6.50;99.90;;;;;;4993837;28;20231;-91
2020/12/03 11:10:26;;;;;;;17.43;8.07;;;6.50;99.90;;;;;;4984432;28;20805;-89
2020/12/03 11:12:52;;;;;;;20.17;9.47;;;6.50;99.90;;;;;;4984533;28;20219;-91
2020/12/03 11:15:23;;;;;;;17.70;9.07;;;6.50;99.90;;;;;;4976236;28;20258;-91
2020/12/03 11:18:11;;;;;;;11.43;7.50;;;6.40;99.90;;;;;;4967877;28;20254;-90
2020/12/03 11:20:38;;;;;;;12.63;6.43;;;6.40;99.90;;;;;;4984886;28;20179;-90
2020/12/03 11:23:06;;;;;;;12.23;8.37;;;6.30;99.90;;;;;;4969819;28;20188;-91
2020/12/03 11:25:33;;;;;;;15.87;8.33;;;6.30;99.90;;;;;;5001116;28;20229;-88
2020/12/03 11:28:11;;;;;;;13.53;8.60;;;6.30;99.90;;;;;;4968416;28;20229;-91
2020/12/03 11:30:37;;;;;;;11.97;5.07;;;6.30;99.90;;;;;;4984030;28;20269;-90
2020/12/03 11:33:03;;;;;;;11.53;6.30;;;6.30;99.90;;;;;;4962373;28;20220;-91
2020/12/03 11:35:32;;;;;;;11.60;7.10;;;6.30;99.90;;;;;;4933384;28;20211;-91
2020/12/03 11:38:03;;;;;;;15.90;6.90;;;6.30;99.90;;;;;;4986211;28;20186;-88
2020/12/03 11:40:40;;;;;;;9.80;6.10;;;6.30;99.90;;;;;;4986921;28;20219;-92
2020/12/03 11:43:34;;;;;;;22.00;7.43;;;6.30;99.90;;;;;;4965314;28;20243;-89
2020/12/03 11:48:42;;;;;;;17.03;6.13;;;6.30;99.90;;;;;;4975411;28;20254;-93
2020/12/03 11:51:24;;;;;;;13.90;6.33;;;6.30;99.90;;;;;;4934976;28;20212;-90
2020/12/03 11:53:58;;;;;;;13.67;7.17;;;6.30;99.90;;;;;;4970309;28;20223;-91
2020/12/03 11:56:24;;;;;;;11.87;6.70;;;6.30;99.90;;;;;;4992496;28;20187;-95
2020/12/03 11:58:50;;;;;;;12.17;8.37;;;6.30;99.90;;;;;;4981529;28;20218;-95
2020/12/03 12:01:17;;;;;;;19.40;8.77;;;6.30;99.90;;;;;;4979080;28;20230;-95
2020/12/03 12:03:55;;;;;;;13.77;6.07;;;6.30;99.90;;;;;;4993636;28;20350;-95
2020/12/03 12:06:33;;;;;;;13.90;7.77;;;6.30;99.90;;;;;;4970001;28;20234;-95
2020/12/03 12:09:14;;;;;;;20.10;9.07;;;6.30;99.90;;;;;;4987595;28;20246;-94
2020/12/03 12:11:51;;;;;;;12.17;7.00;;;6.30;99.90;;;;;;4984710;28;20231;-96
2020/12/03 12:14:21;;;;;;;7.93;5.63;;;6.30;99.90;;;;;;4996041;28;20185;-95
2020/12/03 12:16:52;;;;;;;15.00;8.73;;;6.30;99.90;;;;;;4996418;28;20179;-95
2020/12/03 12:19:28;;;;;;;19.83;8.10;;;6.30;99.90;;;;;;5012712;28;20187;-94
2020/12/03 12:21:56;;;;;;;19.47;8.43;;;6.30;99.90;;;;;;4994025;28;20527;-95
2020/12/03 12:24:21;;;;;;;13.53;7.40;;;6.30;99.90;;;;;;4985069;28;20340;-88
2020/12/03 12:26:48;;;;;;;12.53;9.40;;;6.30;99.90;;;;;;4983333;28;21222;-89
2020/12/03 12:29:14;;;;;;;14.50;8.03;;;6.30;99.90;;;;;;5002250;28;20179;-89
2020/12/03 12:31:40;;;;;;;21.50;9.03;;;6.30;99.90;;;;;;4999445;28;20215;-93
2020/12/03 12:34:11;;;;;;;10.83;5.50;;;6.30;99.90;;;;;;4976429;28;20230;-93
2020/12/03 12:36:37;;;;;;;7.70;5.03;;;6.30;99.90;;;;;;4984632;28;20211;-87
2020/12/03 12:39:04;;;;;;;9.73;6.53;;;6.30;99.90;;;;;;4967829;28;20223;-89
2020/12/03 12:41:30;;;;;;;5.57;3.83;;;6.30;99.90;;;;;;4983320;28;20180;-87
2020/12/03 12:43:56;;;;;;;13.47;5.63;;;6.30;99.90;;;;;;5002864;28;20250;-88
2020/12/03 12:46:23;;;;;;;8.77;6.07;;;6.30;99.90;;;;;;4966706;28;20207;-85
2020/12/03 12:48:50;;;;;;;8.60;5.30;;;6.20;99.90;;;;;;4999381;28;20226;-85
2020/12/03 12:51:16;;;;;;;7.90;4.47;;;6.30;99.90;;;;;;4982188;28;20219;-88
2020/12/03 12:53:42;;;;;;;7.40;4.67;;;6.30;99.90;;;;;;4966436;28;20231;-86
2020/12/03 12:56:13;;;;;;;10.33;5.67;;;6.30;99.90;;;;;;4985239;28;20195;-86
2020/12/03 12:58:39;;;;;;;8.73;5.27;;;6.30;99.90;;;;;;4983968;28;20254;-85
2020/12/03 13:01:06;;;;;;;8.27;6.80;;;6.20;99.90;;;;;;4965641;28;20219;-86
2020/12/03 13:03:32;;;;;;;10.07;4.10;;;6.20;99.90;;;;;;5001047;28;20230;-87
2020/12/03 13:05:59;;;;;;;6.50;4.43;;;6.30;99.90;;;;;;4966218;28;21054;-85
2020/12/03 13:08:26;;;;;;;10.43;5.73;;;6.20;99.90;;;;;;4982418;28;20227;-87
2020/12/03 13:10:52;;;;;;;5.07;3.57;;;6.30;99.90;;;;;;4967853;28;20191;-87
2020/12/03 13:13:18;;;;;;;7.83;4.23;;;6.30;99.90;;;;;;4966594;28;20222;-87
2020/12/03 13:15:46;;;;;;;9.23;4.43;;;6.30;99.90;;;;;;4963036;28;20231;-87
2020/12/03 13:18:12;;;;;;;7.70;4.60;;;6.30;99.90;;;;;;4950258;28;20227;-86
2020/12/03 13:20:38;;;;;;;9.13;6.40;;;6.30;99.90;;;;;;4965808;28;20188;-86
2020/12/03 13:23:04;;;;;;;5.63;4.73;;;6.30;99.90;;;;;;4967341;28;20183;-86
2020/12/03 13:25:29;;;;;;;13.63;5.70;;;6.30;99.90;;;;;;4967422;28;20587;-87
2020/12/03 13:27:55;;;;;;;7.73;6.87;;;6.30;99.90;;;;;;4982595;28;20230;-87
2020/12/03 13:30:21;;;;;;;11.87;4.43;;;6.30;99.90;;;;;;4967286;28;21243;-85
2020/12/03 13:32:46;;;;;;;9.83;5.23;;;6.30;99.90;;;;;;4982794;28;20412;-86
2020/12/03 13:35:12;;;;;;;10.90;7.13;;;6.30;99.90;;;;;;4971022;28;20270;-88
2020/12/03 13:37:38;;;;;;;11.37;5.17;;;6.30;99.90;;;;;;4969383;28;20250;-86
2020/12/03 13:40:04;;;;;;;6.53;3.43;;;6.30;99.90;;;;;;4968866;28;20230;-86
2020/12/03 13:42:29;;;;;;;17.00;6.17;;;6.30;99.90;;;;;;4966645;28;20218;-87
2020/12/03 13:44:55;;;;;;;8.03;6.00;;;6.30;99.90;;;;;;4985426;28;20696;-87
2020/12/03 13:47:23;;;;;;;11.37;7.13;;;6.30;99.90;;;;;;4984133;28;20194;-88
2020/12/03 13:49:48;;;;;;;7.50;5.93;;;6.30;99.90;;;;;;4970493;28;20183;-88
2020/12/03 13:52:14;;;;;;;7.73;6.43;;;6.40;99.90;;;;;;4968806;28;20230;-86
2020/12/03 13:54:40;;;;;;;12.97;5.00;;;6.40;99.90;;;;;;4985677;28;20327;-87
2020/12/03 13:57:06;;;;;;;16.40;7.27;;;6.40;99.90;;;;;;4984945;28;20363;-87
2020/12/03 13:59:32;;;;;;;8.97;5.70;;;6.40;99.90;;;;;;4968619;28;20191;-88